Irmo, SC (29063)

11:48 AM EST on December 10, 2016 (GMT -0500)
Colony Ridge | | Change Station

Elev 300 ft 34.16 °N, 81.20 °W | Updated 1 second ago

Clear
Clear
43.9 °F
Feels Like 44 °F
N
0.4
Wind Variable Wind from SE
Gusts 2.5 mph

Today
High -- | Low -- °F
--% Chance of Precip.
Yesterday
High -- | Low -- °F
Precip. -- in
Pressure 30.55 in
Visibility 10.0 miles
Clouds Clear
Windchill 44 °F
Dew Point 15 °F
Humidity 31%
Rainfall 0.00 in
Snow Depth Not available.
7:20 AM 5:15 PM
Waxing Gibbous, 85% visible
METAR KFDW 101635Z AUTO 06004KT 10SM CLR 04/M07 A3055 RMK AO1
Pressure 30.55 in
Visibility 10.0 miles
Clouds Clear
Windchill 44 °F
Dew Point 15 °F
Humidity 31%
Rainfall 0.00 in
Snow Depth Not available.
7:20 AM 5:15 PM
Waxing Gibbous, 85% visible
METAR KFDW 101635Z AUTO 06004KT 10SM CLR 04/M07 A3055 RMK AO1

10-Day Weather Forecast

Almanac

Astronomy

Dec. 10, 2016 Rise Set
Actual Time
Civil Twilight
Nautical Twilight
Astronomical Twilight
Moon
Length of Visible Light
Length of Day
Tomorrow will be .
, % of the Moon is Illuminated

Today's Extremes

State Highs State Lows

Community

WunderPhotos

Upload Photos

1,956,569 photos uploaded!

WunderBlog® & News

Nearby

Air Quality

  Air Quality AQ Index Pollutant
Not available.

Snow Depth

Station Depth Elevation

Earthquake Activity

City Distance Mag. Time & Date
Minimum magnitude displayed is 2.5.

Coastal Water Temperatures

Place Temperature

Stations

Nearby Weather Stations

Station Location Temp. Windchill Dew Point Humidity Wind Precip. Elev Updated Type
                   

Watches & Warnings

There are currently no watches in effect.